Seattle, Washington
Current Conditions -  °F | °C
As of 2:53 AM on Sunday 23 Nov 2014 (Local Time) from KBFI Reporting Station
Light Rain Light Rain  
Wind Chill: 50°   Ceiling: 4500
Heat Index: 50°   Visibility: 10mi
Dew Point: 43°   Wind: 13mph
Humidity: 77%   Direction: 180°S
Pressure: 30.16"   Gusts: 20mph
Location:  47.6°N, 122.32°W
Report Text: KBFI 231053Z 18011G17KT 10SM -RA FEW029 SCT036 OVC045 10/06 A3016 RMK AO2 RAE05B28 SLP212 P0003 T01000061
Loading
Personal Weather Stations






























Interactive Weather Map New forecast layout! Learn more

10-Day Weather Forecast

Advertisements
Track Severe Weather on mobile